Time;durP1;ratioP1;P1;durP2;ratioP2;P2;SDS_P1;SDS_P2;PMS_P1;PMS_P2;Temp;Humidity;BMP_temperature;BMP_pressure;BME280_temperature;BME280_humidity;BME280_pressure;Samples;Min_cycle;Max_cycle;Signal;HPM_P1;HPM_P2
2023/02/14 00:01:40;;;;;;;45.42;17.13;;;;;;;8.26;100.00;98195.38;5097293;27;20075;-47
2023/02/14 00:04:08;;;;;;;91.82;19.98;;;;;;;7.52;100.00;98199.44;5095121;27;20684;-51
2023/02/14 00:06:37;;;;;;;85.40;17.15;;;;;;;6.37;100.00;98212.41;5097809;27;20080;-52
2023/02/14 00:09:06;;;;;;;75.40;19.35;;;;;;;6.03;100.00;98215.81;5100802;27;20083;-54
2023/02/14 00:11:34;;;;;;;56.65;15.82;;;;;;;6.49;100.00;98208.31;5100031;27;20094;-45
2023/02/14 00:16:50;;;;;;;109.90;17.52;;;;;;;6.37;100.00;98208.00;5098083;27;20627;-45
2023/02/14 00:19:19;;;;;;;64.47;17.10;;;;;;;7.16;100.00;98201.38;5100186;27;20177;-49
2023/02/14 00:21:48;;;;;;;54.47;16.38;;;;;;;7.65;100.00;98199.63;5098140;27;20504;-48
2023/02/14 00:24:18;;;;;;;50.35;15.57;;;;;;;7.77;100.00;98198.94;5095139;27;20064;-53
2023/02/14 00:26:46;;;;;;;67.20;16.17;;;;;;;7.74;100.00;98200.88;5114574;27;20565;-50
2023/02/14 00:29:17;;;;;;;73.80;16.42;;;;;;;6.84;100.00;98201.28;5098062;27;20072;-49
2023/02/14 00:31:46;;;;;;;56.17;17.77;;;;;;;6.91;100.00;98197.41;5099782;27;20571;-45
2023/02/14 00:34:16;;;;;;;65.95;16.15;;;;;;;6.70;100.00;98201.97;5098363;27;20075;-50
2023/02/14 00:36:45;;;;;;;67.38;16.42;;;;;;;7.03;100.00;98204.66;5101488;27;20523;-50
2023/02/14 00:39:14;;;;;;;112.32;20.70;;;;;;;6.56;100.00;98218.41;5102223;27;20089;-52
2023/02/14 00:41:43;;;;;;;55.90;15.60;;;;;;;7.32;100.00;98215.41;5097719;27;20075;-51
2023/02/14 00:44:12;;;;;;;60.83;16.73;;;;;;;7.32;100.00;98212.78;5099831;27;20078;-48
2023/02/14 00:46:41;;;;;;;51.27;15.47;;;;;;;8.01;100.00;98216.91;5094365;28;20477;-55
2023/02/14 00:49:09;;;;;;;50.15;16.42;;;;;;;8.09;100.00;98201.59;5095975;28;20566;-47
2023/02/14 00:51:39;;;;;;;88.05;17.85;;;;;;;7.17;100.00;98201.31;5093280;27;20090;-55
2023/02/14 00:54:08;;;;;;;42.28;16.23;;;;;;;7.92;100.00;98196.44;5096297;27;20475;-53
2023/02/14 00:56:36;;;;;;;63.28;17.70;;;;;;;7.81;100.00;98200.50;5102053;27;20094;-49
2023/02/14 00:59:04;;;;;;;76.05;18.60;;;;;;;7.53;100.00;98208.16;5112980;27;20075;-50
2023/02/14 01:01:33;;;;;;;72.70;18.27;;;;;;;7.38;100.00;98213.31;5098998;27;20072;-51
2023/02/14 01:04:01;;;;;;;61.28;15.77;;;;;;;7.41;100.00;98208.81;5105395;27;20083;-52
2023/02/14 01:06:30;;;;;;;54.20;15.13;;;;;;;7.54;100.00;98208.09;5094113;27;20083;-52
2023/02/14 01:08:59;;;;;;;56.63;15.88;;;;;;;6.90;100.00;98224.56;5098649;27;20083;-45
2023/02/14 01:11:28;;;;;;;60.13;16.80;;;;;;;6.39;100.00;98228.88;5101029;27;20091;-54
2023/02/14 01:13:58;;;;;;;79.43;18.00;;;;;;;6.53;100.00;98221.19;5092697;28;20079;-50
2023/02/14 01:16:27;;;;;;;101.75;19.00;;;;;;;6.57;100.00;98228.00;5096525;27;20090;-53
2023/02/14 01:18:56;;;;;;;68.50;17.10;;;;;;;7.14;100.00;98214.59;5102742;27;20086;-48
2023/02/14 01:21:26;;;;;;;46.05;17.05;;;;;;;7.09;100.00;98217.47;5100158;27;20083;-48
2023/02/14 01:23:56;;;;;;;76.03;16.92;;;;;;;8.03;100.00;98215.06;5096329;28;20118;-47
2023/02/14 01:26:27;;;;;;;51.33;16.53;;;;;;;7.97;100.00;98215.38;5097960;27;20091;-52
2023/02/14 01:28:56;;;;;;;40.13;15.88;;;;;;;7.41;100.00;98214.09;5102239;27;20508;-47
2023/02/14 01:31:26;;;;;;;44.20;16.52;;;;;;;7.26;100.00;98216.59;5101244;27;20087;-49
2023/02/14 01:33:54;;;;;;;;;;;;;;;6.62;100.00;98220.72;5102748;27;20086;-49
2023/02/14 01:36:24;;;;;;;56.60;16.90;;;;;;;6.99;100.00;98218.03;5097400;27;19966;-55
2023/02/14 01:38:54;;;;;;;57.22;16.27;;;;;;;7.28;100.00;98212.09;5102427;27;20091;-50
2023/02/14 01:41:24;;;;;;;74.47;17.45;;;;;;;6.92;100.00;98211.38;5097543;27;20066;-50
2023/02/14 01:43:57;;;;;;;56.70;16.38;;;;;;;7.85;100.00;98207.25;5098379;27;20464;-50
2023/02/14 01:46:27;;;;;;;53.45;16.10;;;;;;;7.67;100.00;98224.00;5102632;27;20087;-51
2023/02/14 01:48:58;;;;;;;37.75;15.30;;;;;;;7.37;100.00;98232.59;5111998;27;20176;-53
2023/02/14 01:51:27;;;;;;;49.25;15.35;;;;;;;6.14;100.00;98230.06;5096947;27;20075;-49
2023/02/14 01:53:57;;;;;;;64.53;17.02;;;;;;;6.61;100.00;98231.31;5097673;27;20067;-48
2023/02/14 01:56:28;;;;;;;58.25;16.75;;;;;;;6.61;100.00;98220.81;5093779;27;20079;-46
2023/02/14 01:58:59;;;;;;;69.88;15.43;;;;;;;7.54;100.00;98215.13;5091316;28;20083;-49
2023/02/14 02:01:29;;;;;;;45.10;14.90;;;;;;;6.21;100.00;98222.75;5096515;27;20094;-55
2023/02/14 02:04:01;;;;;;;52.08;14.85;;;;;;;6.09;100.00;98234.69;5092542;27;20075;-49
2023/02/14 02:06:32;;;;;;;58.30;16.13;;;;;;;7.09;100.00;98214.84;5095402;27;20079;-49
2023/02/14 02:09:03;;;;;;;;;;;;;;;6.25;100.00;98226.94;5095431;27;20075;-45
2023/02/14 02:11:31;;;;;;;66.85;18.02;;;;;;;6.24;100.00;98227.84;5096825;27;20395;-45
2023/02/14 02:14:03;;;;;;;58.47;16.05;;;;;;;6.80;100.00;98216.31;5099568;27;20075;-48
2023/02/14 02:16:52;;;;;;;80.03;18.30;;;;;;;6.05;100.00;98222.63;5093661;27;20513;-47
2023/02/14 02:19:45;;;;;;;36.58;14.60;;;;;;;5.63;100.00;98221.09;5094682;28;20407;-49
2023/02/14 02:22:30;;;;;;;93.03;17.73;;;;;;;6.01;100.00;98218.47;5093558;27;20086;-47
2023/02/14 02:25:03;;;;;;;55.30;16.45;;;;;;;6.52;100.00;98216.03;5106360;27;20090;-47
2023/02/14 02:28:10;;;;;;;60.63;16.60;;;;;;;6.83;100.00;98200.44;5097015;27;20094;-49
2023/02/14 02:31:01;;;;;;;64.80;15.82;;;;;;;7.52;100.00;98190.72;5092316;28;20075;-52
2023/02/14 02:34:08;;;;;;;39.92;15.70;;;;;;;7.83;100.00;98195.13;5099949;27;20134;-49
2023/02/14 02:36:47;;;;;;;45.40;15.25;;;;;;;7.85;100.00;98185.41;5102277;27;20080;-49
2023/02/14 02:39:26;;;;;;;41.75;15.70;;;;;;;8.03;100.00;98186.16;5095292;28;20095;-53
2023/02/14 02:42:06;;;;;;;59.00;17.17;;;;;;;6.95;100.00;98191.09;5103631;27;20095;-50
2023/02/14 02:44:39;;;;;;;;;;;;;;;6.08;100.00;98201.53;5097988;28;20079;-49
2023/02/14 02:47:10;;;;;;;62.38;15.80;;;;;;;6.48;100.00;98199.59;5099264;28;19963;-48
2023/02/14 02:55:26;;;;;;;56.03;18.15;;;;;;;6.47;100.00;98195.31;5093497;28;20072;-47
2023/02/14 02:57:54;;;;;;;56.45;17.50;;;;;;;6.02;100.00;98199.25;5094515;28;20103;-54
2023/02/14 03:00:23;;;;;;;43.05;15.95;;;;;;;5.96;100.00;98196.91;5091897;28;20081;-49
2023/02/14 03:05:41;;;;;;;75.70;16.23;;;;;;;6.53;100.00;98192.34;5095328;28;20072;-47
2023/02/14 03:08:10;;;;;;;50.72;14.57;;;;;;;6.28;100.00;98194.50;5098079;28;20081;-45
2023/02/14 03:10:39;;;;;;;83.35;16.25;;;;;;;6.94;100.00;98180.69;5095818;27;20086;-48
2023/02/14 03:13:35;;;;;;;73.35;15.85;;;;;;;7.32;100.00;98176.03;5102954;28;20076;-48
2023/02/14 03:16:49;;;;;;;82.45;16.45;;;;;;;7.04;100.00;98174.88;5101434;27;20538;-48
2023/02/14 03:19:37;;;;;;;57.83;16.35;;;;;;;7.16;100.00;98181.28;5070040;27;20530;-49
2023/02/14 03:22:08;;;;;;;78.90;17.45;;;;;;;7.01;100.00;98190.78;5097288;27;20087;-53
2023/02/14 03:24:45;;;;;;;43.60;14.85;;;;;;;6.90;100.00;98183.47;5102154;27;20151;-51
2023/02/14 03:27:16;;;;;;;43.67;16.20;;;;;;;7.81;100.00;98181.22;5095632;27;20142;-45
2023/02/14 03:29:54;;;;;;;40.83;15.35;;;;;;;7.58;100.00;98188.59;5098023;27;20148;-51
2023/02/14 03:32:29;;;;;;;80.75;19.60;;;;;;;6.47;100.00;98200.53;5099801;27;20105;-53
2023/02/14 03:35:01;;;;;;;57.25;17.05;;;;;;;6.65;100.00;98201.38;5094242;27;20102;-50
2023/02/14 03:37:32;;;;;;;63.33;14.98;;;;;;;6.87;100.00;98194.09;5107113;27;20091;-49
2023/02/14 03:40:06;;;;;;;44.75;14.27;;;;;;;7.71;100.00;98186.16;5098629;27;20536;-52
2023/02/14 03:42:36;;;;;;;55.13;15.32;;;;;;;7.75;100.00;98187.69;5099206;27;20080;-50
2023/02/14 03:45:09;;;;;;;79.60;16.27;;;;;;;7.66;100.00;98188.19;5091055;27;20560;-54
2023/02/14 03:47:38;;;;;;;76.07;16.73;;;;;;;6.98;100.00;98196.16;5094254;28;20093;-48
2023/02/14 03:50:10;;;;;;;65.47;16.20;;;;;;;7.69;100.00;98189.81;5105988;27;20079;-47
2023/02/14 03:52:38;;;;;;;69.00;16.55;;;;;;;6.46;100.00;98197.97;5093642;28;20076;-45
2023/02/14 03:55:09;;;;;;;51.10;14.90;;;;;;;7.19;100.00;98190.72;5101323;27;20554;-48
2023/02/14 03:57:38;;;;;;;;;;;;;;;6.72;100.00;98194.91;5108374;27;20075;-47
2023/02/14 04:00:08;;;;;;;64.00;15.80;;;;;;;7.41;100.00;98185.22;5097914;27;19963;-54
2023/02/14 04:02:38;;;;;;;66.50;15.95;;;;;;;7.28;100.00;98180.59;5094222;27;20090;-51
2023/02/14 04:05:12;;;;;;;75.80;16.33;;;;;;;7.39;100.00;98187.91;5095507;28;20554;-47
2023/02/14 04:07:47;;;;;;;63.67;16.35;;;;;;;6.61;100.00;98203.31;5098111;27;20516;-49
2023/02/14 04:10:18;;;;;;;75.95;17.92;;;;;;;6.80;100.00;98200.59;5094603;27;20083;-49
2023/02/14 04:12:47;;;;;;;81.70;16.58;;;;;;;6.74;100.00;98197.44;5092606;27;20098;-50
2023/02/14 04:15:16;;;;;;;74.40;15.77;;;;;;;6.10;100.00;98201.50;5099915;27;20102;-49
2023/02/14 04:20:33;;;;;;;52.33;15.02;;;;;;;6.44;100.00;98198.06;5078968;27;20090;-49
2023/02/14 04:23:01;;;;;;;89.35;15.90;;;;;;;6.09;100.00;98198.03;5096993;27;20080;-49
2023/02/14 04:25:32;;;;;;;98.80;16.67;;;;;;;6.44;100.00;98194.59;5093906;28;20081;-51
2023/02/14 04:28:00;;;;;;;76.30;16.00;;;;;;;6.98;100.00;98187.47;5096649;27;20110;-48
2023/02/14 04:30:28;;;;;;;45.58;14.23;;;;;;;6.80;100.00;98190.09;5103371;27;20509;-51
2023/02/14 04:32:57;;;;;;;55.47;14.88;;;;;;;6.23;100.00;98199.97;5097950;27;20539;-51
2023/02/14 04:35:25;;;;;;;70.25;16.55;;;;;;;6.14;100.00;98196.00;5099984;27;20075;-46
2023/02/14 04:37:53;;;;;;;88.35;17.08;;;;;;;5.97;100.00;98195.13;5093702;28;20083;-48
2023/02/14 04:40:22;;;;;;;67.20;15.30;;;;;;;6.33;100.00;98184.63;5098399;28;20102;-46
2023/02/14 04:42:51;;;;;;;58.78;14.05;;;;;;;5.36;100.00;98196.19;5095366;27;20080;-48
2023/02/14 04:45:20;;;;;;;84.25;14.88;;;;;;;5.54;100.00;98189.25;5090728;28;20078;-48
2023/02/14 04:47:48;;;;;;;64.32;14.70;;;;;;;6.72;100.00;98173.09;5108587;27;20082;-49
2023/02/14 04:50:16;;;;;;;59.33;15.55;;;;;;;6.76;100.00;98185.09;5099507;27;20539;-51
2023/02/14 04:52:44;;;;;;;84.35;16.23;;;;;;;5.83;100.00;98178.28;5097668;28;20083;-47
2023/02/14 04:55:13;;;;;;;56.25;14.77;;;;;;;6.88;100.00;98168.72;5099723;27;20098;-46
2023/02/14 04:57:41;;;;;;;81.82;17.58;;;;;;;5.87;100.00;98181.59;5095431;27;20083;-48
2023/02/14 05:00:12;;;;;;;70.10;17.13;;;;;;;6.58;100.00;98172.00;5096951;27;20078;-48
2023/02/14 05:02:40;;;;;;;83.20;15.48;;;;;;;6.80;100.00;98168.28;5100482;27;20067;-49
2023/02/14 05:05:09;;;;;;;75.40;17.00;;;;;;;6.66;100.00;98169.84;5099778;27;20086;-50
2023/02/14 05:07:37;;;;;;;53.17;15.45;;;;;;;6.31;100.00;98165.53;5093445;27;20079;-47
2023/02/14 05:10:06;;;;;;;42.75;14.02;;;;;;;6.74;100.00;98155.47;5094031;27;20083;-44
2023/02/14 05:12:34;;;;;;;53.10;15.02;;;;;;;7.07;100.00;98145.03;5091996;27;20079;-49
2023/02/14 05:15:03;;;;;;;51.95;15.50;;;;;;;6.49;100.00;98155.91;5098311;27;20094;-51
2023/02/14 05:17:32;;;;;;;58.53;16.55;;;;;;;6.56;100.00;98160.75;5097256;28;20084;-48
2023/02/14 05:20:01;;;;;;;40.67;15.25;;;;;;;6.83;100.00;98145.38;5100666;28;20177;-52
2023/02/14 05:22:29;;;;;;;49.08;15.70;;;;;;;6.99;100.00;98147.22;5094478;28;20083;-52
2023/02/14 05:24:57;;;;;;;62.80;14.70;;;;;;;6.63;100.00;98151.63;5093366;28;20067;-54
2023/02/14 05:27:25;;;;;;;65.32;15.35;;;;;;;6.30;100.00;98154.22;5095871;28;20076;-47
2023/02/14 05:29:54;;;;;;;104.65;16.13;;;;;;;6.11;100.00;98166.50;5095030;27;20075;-48
2023/02/14 05:32:22;;;;;;;44.30;13.90;;;;;;;7.06;100.00;98166.94;5103168;27;20086;-47
2023/02/14 05:34:52;;;;;;;54.53;14.23;;;;;;;7.01;100.00;98159.28;5102770;27;20075;-47
2023/02/14 05:37:20;;;;;;;68.67;15.67;;;;;;;7.10;100.00;98165.84;5102154;27;20075;-50
2023/02/14 05:39:48;;;;;;;71.88;15.65;;;;;;;7.30;100.00;98157.75;5092631;27;20086;-55
2023/02/14 05:42:16;;;;;;;42.50;14.00;;;;;;;7.05;100.00;98163.44;5099855;27;20091;-47
2023/02/14 05:44:45;;;;;;;58.67;13.57;;;;;;;6.38;100.00;98175.63;5099848;27;20083;-51
2023/02/14 05:47:13;;;;;;;90.65;15.52;;;;;;;5.77;100.00;98169.84;5103240;27;20471;-46
2023/02/14 05:49:41;;;;;;;52.78;13.38;;;;;;;6.68;100.00;98164.53;5102528;27;20090;-47
2023/02/14 05:52:11;;;;;;;73.80;14.75;;;;;;;6.55;100.00;98171.31;5094115;27;20091;-49
2023/02/14 05:54:39;;;;;;;60.97;15.43;;;;;;;6.65;100.00;98172.56;5100327;27;20090;-50
2023/02/14 05:57:07;;;;;;;70.88;15.45;;;;;;;6.74;100.00;98164.19;5095580;27;20084;-48
2023/02/14 05:59:35;;;;;;;55.53;14.75;;;;;;;6.99;100.00;98162.94;5108284;27;20086;-47
2023/02/14 06:02:04;;;;;;;75.93;15.43;;;;;;;6.50;100.00;98179.38;5096664;27;20087;-50
2023/02/14 06:04:32;;;;;;;72.53;15.35;;;;;;;6.48;100.00;98183.03;5098460;27;20092;-49
2023/02/14 06:07:00;;;;;;;62.38;15.35;;;;;;;5.86;100.00;98179.91;5097661;27;20667;-49
2023/02/14 06:09:30;;;;;;;34.95;13.15;;;;;;;5.72;100.00;98172.72;5103384;27;20085;-47
2023/02/14 06:11:58;;;;;;;59.63;14.93;;;;;;;5.24;100.00;98177.50;5102996;27;20083;-43
2023/02/14 06:14:27;;;;;;;40.15;12.95;;;;;;;5.43;100.00;98177.50;5094548;27;20067;-48
2023/02/14 06:16:55;;;;;;;49.58;13.70;;;;;;;5.51;100.00;98186.81;5096526;28;20680;-47
2023/02/14 06:19:23;;;;;;;45.78;13.45;;;;;;;5.55;100.00;98188.34;5094667;28;20626;-52
2023/02/14 06:21:51;;;;;;;67.55;15.23;;;;;;;6.59;100.00;98181.56;5094040;28;20150;-47
2023/02/14 06:24:20;;;;;;;69.65;14.00;;;;;;;6.07;100.00;98188.53;5100045;28;20462;-47
2023/02/14 06:26:49;;;;;;;37.75;12.85;;;;;;;6.80;100.00;98186.63;5097632;27;20094;-48
2023/02/14 06:29:18;;;;;;;39.45;14.20;;;;;;;7.01;100.00;98177.66;5095924;28;20486;-53
2023/02/14 06:31:46;;;;;;;55.92;13.40;;;;;;;7.19;100.00;98177.63;5095363;27;20079;-49
2023/02/14 06:34:15;;;;;;;34.47;13.25;;;;;;;7.21;100.00;98181.84;5091384;27;20535;-49
2023/02/14 06:36:43;;;;;;;73.10;14.98;;;;;;;7.09;100.00;98188.63;5094371;27;20074;-47
2023/02/14 06:39:11;;;;;;;37.65;13.48;;;;;;;6.82;100.00;98195.28;5098945;27;20075;-47
2023/02/14 06:41:39;;;;;;;39.92;14.02;;;;;;;6.83;100.00;98189.09;5097562;27;20498;-48
2023/02/14 06:44:09;;;;;;;35.28;13.25;;;;;;;6.69;100.00;98197.69;5094310;28;20079;-49
2023/02/14 06:46:37;;;;;;;36.10;11.00;;;;;;;7.22;100.00;98191.41;5096914;27;20146;-50
2023/02/14 06:49:06;;;;;;;36.92;14.30;;;;;;;6.82;100.00;98192.66;5101384;27;20564;-52
2023/02/14 06:51:34;;;;;;;45.33;14.23;;;;;;;6.74;100.00;98205.28;5096123;28;20079;-50
2023/02/14 06:54:02;;;;;;;35.42;13.63;;;;;;;6.78;100.00;98201.59;5096135;28;20083;-49
2023/02/14 06:56:30;;;;;;;64.15;14.65;;;;;;;5.92;100.00;98198.81;5091039;28;20520;-47
2023/02/14 06:58:59;;;;;;;54.63;14.73;;;;;;;6.68;100.00;98195.16;5104954;28;20092;-53
2023/02/14 07:01:28;;;;;;;32.28;12.60;;;;;;;7.02;100.00;98182.00;5092783;28;20330;-46
2023/02/14 07:03:57;;;;;;;36.05;14.23;;;;;;;6.66;100.00;98184.72;5098141;28;20079;-49
2023/02/14 07:06:25;;;;;;;29.85;12.73;;;;;;;7.20;100.00;98174.09;5095911;28;20075;-47
2023/02/14 07:08:53;;;;;;;38.78;13.05;;;;;;;7.25;100.00;98182.53;5093372;28;20559;-50
2023/02/14 07:11:21;;;;;;;48.60;13.75;;;;;;;6.30;100.00;98195.28;5095379;28;20075;-53
2023/02/14 07:13:50;;;;;;;49.58;13.77;;;;;;;5.52;100.00;98185.88;5101512;28;20086;-51
2023/02/14 07:16:18;;;;;;;38.20;13.23;;;;;;;5.90;100.00;98177.06;5093889;28;20643;-45
2023/02/14 07:18:48;;;;;;;43.70;14.32;;;;;;;4.80;100.00;98184.69;5098974;28;20082;-44
2023/02/14 07:21:16;;;;;;;52.20;14.25;;;;;;;4.99;100.00;98193.44;5100492;28;20095;-50
2023/02/14 07:23:46;;;;;;;46.40;13.20;;;;;;;4.73;100.00;98196.34;5094686;28;20083;-49
2023/02/14 07:26:16;;;;;;;35.88;12.93;;;;;;;6.19;100.00;98182.69;5095928;28;20456;-46
2023/02/14 07:28:47;;;;;;;41.08;14.18;;;;;;;6.43;100.00;98180.63;5098141;28;20076;-49
2023/02/14 07:31:15;;;;;;;61.60;13.40;;;;;;;5.61;100.00;98181.06;5095502;27;20079;-47
2023/02/14 07:33:44;;;;;;;35.30;13.13;;;;;;;6.39;100.00;98173.84;5091100;27;20480;-49
2023/02/14 07:36:13;;;;;;;35.80;12.65;;;;;;;6.47;100.00;98171.72;5094698;28;20768;-44
2023/02/14 07:38:42;;;;;;;45.70;13.85;;;;;;;6.80;100.00;98157.78;5096032;28;20159;-52
2023/02/14 07:41:10;;;;;;;52.85;14.35;;;;;;;7.05;100.00;98149.47;5092573;28;20079;-54
2023/02/14 07:43:38;;;;;;;41.20;12.27;;;;;;;7.52;100.00;98156.59;5093244;28;20086;-47
2023/02/14 07:46:07;;;;;;;34.42;12.45;;;;;;;6.85;100.00;98154.03;5089432;28;20090;-52
2023/02/14 07:48:35;;;;;;;29.42;12.00;;;;;;;6.46;100.00;98163.91;5088454;28;20078;-47
2023/02/14 07:51:04;;;;;;;53.65;13.35;;;;;;;5.74;100.00;98165.59;5091382;28;20090;-50
2023/02/14 07:53:33;;;;;;;50.80;13.65;;;;;;;6.31;100.00;98158.50;5091170;28;20511;-50
2023/02/14 07:56:01;;;;;;;29.33;12.57;;;;;;;6.30;100.00;98164.69;5099660;27;20075;-49
2023/02/14 07:58:30;;;;;;;42.65;13.15;;;;;;;6.94;100.00;98152.66;5093174;28;20095;-50
2023/02/14 08:00:58;;;;;;;37.30;12.55;;;;;;;7.06;100.00;98157.28;5098500;28;20090;-46
2023/02/14 08:03:27;;;;;;;38.55;13.20;;;;;;;7.18;100.00;98150.53;5111236;27;20083;-47
2023/02/14 08:05:56;;;;;;;47.47;13.88;;;;;;;6.87;100.00;98156.53;5093859;27;20519;-45
2023/02/14 08:08:26;;;;;;;33.27;13.17;;;;;;;6.88;100.00;98155.59;5104841;27;20080;-47
2023/02/14 08:10:56;;;;;;;33.78;13.70;;;;;;;6.53;100.00;98155.66;5094082;27;20477;-51
2023/02/14 08:13:25;;;;;;;49.25;14.65;;;;;;;6.09;100.00;98163.97;5111127;27;20078;-48
2023/02/14 08:16:06;;;;;;;37.13;13.02;;;;;;;5.82;100.00;98153.03;5096981;27;20076;-49
2023/02/14 08:18:37;;;;;;;44.63;12.52;;;;;;;6.24;100.00;98158.91;5098565;27;20527;-51
2023/02/14 08:21:06;;;;;;;38.50;12.98;;;;;;;6.58;100.00;98152.81;5099404;27;20076;-50
2023/02/14 08:23:35;;;;;;;28.85;12.63;;;;;;;6.56;100.00;98147.63;5097379;27;20083;-53
2023/02/14 08:26:05;;;;;;;34.72;12.95;;;;;;;6.03;100.00;98166.03;5103665;27;20084;-45
2023/02/14 08:28:34;;;;;;;54.60;13.18;;;;;;;6.08;100.00;98150.94;5101097;27;20086;-46
2023/02/14 08:31:03;;;;;;;25.58;12.88;;;;;;;7.23;100.00;98140.66;5103803;27;20083;-47
2023/02/14 08:33:32;;;;;;;39.53;14.48;;;;;;;6.18;100.00;98149.56;5096094;27;20553;-46
2023/02/14 08:36:01;;;;;;;36.83;14.55;;;;;;;6.87;100.00;98136.41;5097599;27;20469;-46
2023/02/14 08:38:30;;;;;;;34.67;14.85;;;;;;;6.61;100.00;98136.94;5098840;27;20086;-48
2023/02/14 08:41:00;;;;;;;34.35;13.00;;;;;;;6.46;100.00;98153.41;5095246;27;20079;-47
2023/02/14 08:43:32;;;;;;;29.80;11.93;;;;;;;6.28;100.00;98149.97;5097847;27;20118;-44
2023/02/14 08:46:01;;;;;;;33.63;13.90;;;;;;;6.30;100.00;98146.34;5092904;28;20105;-51
2023/02/14 08:48:30;;;;;;;43.25;13.40;;;;;;;6.39;100.00;98158.97;5093434;27;20082;-49
2023/02/14 08:50:58;;;;;;;30.00;12.98;;;;;;;7.17;100.00;98140.13;5097465;27;20075;-47
2023/02/14 08:53:27;;;;;;;28.13;13.00;;;;;;;7.10;100.00;98150.09;5097005;27;20074;-45
2023/02/14 08:55:55;;;;;;;25.73;12.82;;;;;;;7.42;100.00;98150.16;5099389;27;20079;-45
2023/02/14 08:58:24;;;;;;;33.13;13.43;;;;;;;6.13;100.00;98170.75;5107411;27;20253;-51
2023/02/14 09:00:54;;;;;;;28.02;13.50;;;;;;;7.28;100.00;98156.13;5092006;27;20519;-48
2023/02/14 09:03:23;;;;;;;30.35;12.50;;;;;;;7.61;100.00;98159.56;5096366;27;20081;-54
2023/02/14 09:05:51;;;;;;;31.17;13.27;;;;;;;7.78;100.00;98158.63;5100154;27;20080;-49
2023/02/14 09:08:19;;;;;;;45.28;13.68;;;;;;;7.14;100.00;98167.38;5095506;27;20064;-51
2023/02/14 09:10:47;;;;;;;30.83;12.68;;;;;;;6.62;100.00;98175.31;5102232;27;20090;-48
2023/02/14 09:13:16;;;;;;;35.60;14.32;;;;;;;6.73;100.00;98166.91;5102883;27;20075;-50
2023/02/14 09:15:44;;;;;;;25.20;12.63;;;;;;;7.05;100.00;98162.59;5099476;28;20097;-45
2023/02/14 09:18:14;;;;;;;23.63;11.75;;;;;;;7.10;100.00;98161.44;5100038;27;20064;-51
2023/02/14 09:20:44;;;;;;;23.00;12.23;;;;;;;6.87;100.00;98159.16;5096474;27;20104;-46
2023/02/14 09:23:12;;;;;;;21.17;11.43;;;;;;;7.25;100.00;98157.16;5107709;27;20070;-47
2023/02/14 09:25:41;;;;;;;23.90;11.93;;;;;;;6.50;100.00;98166.28;5103023;27;20111;-51
2023/02/14 09:28:09;;;;;;;19.83;10.98;;;;;;;6.98;100.00;98161.22;5109949;27;20070;-48
2023/02/14 09:30:37;;;;;;;22.90;10.45;;;;;;;6.99;100.00;98157.69;5104158;27;20070;-50
2023/02/14 09:33:05;;;;;;;26.05;11.48;;;;;;;6.82;100.00;98155.97;5111331;27;20077;-50
2023/02/14 09:35:35;;;;;;;20.35;11.68;;;;;;;7.77;100.00;98154.28;5109373;27;21898;-52
2023/02/14 09:38:19;;;;;;;26.08;11.88;;;;;;;7.60;100.00;98162.25;5100748;27;20526;-52
2023/02/14 09:40:49;;;;;;;29.50;12.50;;;;;;;7.67;100.00;98157.50;5108988;27;20091;-46
2023/02/14 09:43:22;;;;;;;25.10;13.10;;;;;;;7.85;100.00;98159.16;5103887;27;20090;-47
2023/02/14 09:45:52;;;;;;;33.83;12.80;;;;;;;7.63;100.00;98159.47;5116539;27;20062;-48
2023/02/14 09:48:23;;;;;;;;;;;;;;;7.32;100.00;98153.25;5106621;27;20086;-54
2023/02/14 09:50:56;;;;;;;42.88;12.30;;;;;;;7.25;100.00;98151.91;5098592;27;19974;-48
2023/02/14 09:53:27;;;;;;;24.10;12.30;;;;;;;7.24;100.00;98152.00;5106063;27;20074;-49
2023/02/14 09:56:01;;;;;;;34.05;12.15;;;;;;;8.07;100.00;98149.09;5111123;27;20555;-50
2023/02/14 09:58:33;;;;;;;24.70;11.80;;;;;;;7.75;100.00;98148.28;5106050;27;20098;-47
2023/02/14 10:01:06;;;;;;;24.50;12.60;;;;;;;8.52;100.00;98147.41;5098178;27;20090;-50
2023/02/14 10:03:44;;;;;;;35.67;12.95;;;;;;;7.92;100.00;98151.75;5098602;28;20087;-45
2023/02/14 10:06:24;;;;;;;25.40;13.18;;;;;;;8.64;100.00;98137.13;5097390;27;20079;-46
2023/02/14 10:08:58;;;;;;;26.83;12.98;;;;;;;8.80;100.00;98137.88;5103286;27;20106;-50
2023/02/14 10:11:28;;;;;;;26.02;14.27;;;;;;;9.42;97.42;98133.16;5099902;27;20780;-50
2023/02/14 10:14:00;;;;;;;36.42;13.65;;;;;;;9.57;92.96;98126.09;5103254;28;20083;-46
2023/02/14 10:16:32;;;;;;;25.50;12.55;;;;;;;9.74;88.38;98127.66;5103916;27;20091;-53
2023/02/14 10:19:02;;;;;;;29.02;13.60;;;;;;;8.01;100.00;98141.56;5098795;27;20071;-49
2023/02/14 10:21:37;;;;;;;27.33;13.65;;;;;;;7.78;100.00;98149.91;5103966;27;20082;-49
2023/02/14 10:24:11;;;;;;;28.20;12.43;;;;;;;8.08;100.00;98147.31;5105158;27;20089;-51
2023/02/14 10:26:40;;;;;;;26.40;12.68;;;;;;;7.40;100.00;98145.00;5098712;28;20086;-55
2023/02/14 10:29:13;;;;;;;29.65;14.15;;;;;;;6.87;100.00;98146.06;5103349;27;20487;-50
2023/02/14 10:31:49;;;;;;;28.55;13.70;;;;;;;7.91;100.00;98142.16;5099679;27;20077;-50
2023/02/14 10:34:24;;;;;;;31.73;13.40;;;;;;;8.01;100.00;98138.94;5105826;27;20067;-49
2023/02/14 10:37:11;;;;;;;34.30;12.88;;;;;;;7.32;100.00;98137.50;5107603;28;20165;-47
2023/02/14 10:39:51;;;;;;;28.08;13.40;;;;;;;9.23;100.00;98120.31;5105526;28;20495;-47
2023/02/14 10:42:25;;;;;;;24.30;13.30;;;;;;;9.57;93.24;98120.00;5105748;27;20079;-52
2023/02/14 10:45:02;;;;;;;25.38;12.93;;;;;;;8.86;100.00;98118.25;5106678;27;20116;-46
2023/02/14 10:47:39;;;;;;;22.13;12.52;;;;;;;9.66;98.19;98116.75;5103456;27;20095;-54
2023/02/14 10:50:15;;;;;;;28.38;12.55;;;;;;;9.23;94.05;98115.06;5094522;28;20086;-47
2023/02/14 10:52:56;;;;;;;22.00;11.93;;;;;;;9.05;98.21;98108.31;5103553;27;20540;-52
2023/02/14 10:55:29;;;;;;;28.48;11.73;;;;;;;9.12;100.00;98108.75;5100004;28;20086;-50
2023/02/14 10:58:02;;;;;;;26.30;11.90;;;;;;;9.69;95.80;98101.59;5106095;27;20079;-51
2023/02/14 11:00:33;;;;;;;24.05;12.32;;;;;;;9.95;88.17;98097.28;5094317;28;20075;-51
2023/02/14 11:03:05;;;;;;;25.98;13.55;;;;;;;10.25;86.31;98092.72;5104551;28;20068;-52
2023/02/14 11:05:36;;;;;;;27.40;14.25;;;;;;;8.68;100.00;98093.91;5094385;28;20148;-51
2023/02/14 11:08:14;;;;;;;29.55;12.95;;;;;;;8.94;100.00;98087.03;5101051;28;20087;-52
2023/02/14 11:10:42;;;;;;;24.67;14.13;;;;;;;9.49;100.00;98088.84;5109610;28;20085;-51
2023/02/14 11:13:30;;;;;;;24.98;14.13;;;;;;;9.71;93.31;98088.34;5104148;28;20078;-53
2023/02/14 11:16:00;;;;;;;24.35;13.80;;;;;;;9.92;94.58;98094.00;5104437;28;20075;-51
2023/02/14 11:18:31;;;;;;;23.88;13.18;;;;;;;9.68;98.37;98083.25;5103834;28;20079;-47
2023/02/14 11:21:02;;;;;;;23.13;12.43;;;;;;;9.63;96.79;98087.97;5105932;28;20079;-47
2023/02/14 11:23:36;;;;;;;20.00;11.93;;;;;;;9.80;89.16;98078.97;5107979;28;20079;-47
2023/02/14 11:26:10;;;;;;;25.60;13.25;;;;;;;9.49;90.87;98079.16;5092557;28;20090;-52
2023/02/14 11:28:46;;;;;;;24.63;13.73;;;;;;;9.14;98.51;98072.66;5101368;28;20083;-49
2023/02/14 11:31:14;;;;;;;26.83;13.68;;;;;;;10.11;90.03;98065.47;5110613;28;20530;-46
2023/02/14 11:33:44;;;;;;;26.98;13.88;;;;;;;9.48;87.71;98060.84;5110752;27;20079;-47
2023/02/14 11:36:15;;;;;;;23.80;13.60;;;;;;;8.73;100.00;98057.63;5122888;27;20079;-51
2023/02/14 11:38:45;;;;;;;26.30;14.85;;;;;;;9.57;99.60;98059.41;5103435;27;20086;-52
2023/02/14 11:41:15;;;;;;;26.17;14.13;;;;;;;9.12;100.00;98051.72;5100795;27;20067;-50
2023/02/14 11:43:44;;;;;;;23.13;13.30;;;;;;;8.33;100.00;98058.25;5119811;27;20102;-50
2023/02/14 11:46:15;;;;;;;22.70;13.15;;;;;;;9.70;100.00;98049.75;5114812;27;20539;-50
2023/02/14 11:48:58;;;;;;;22.33;12.88;;;;;;;10.20;91.89;98038.50;5121237;27;20079;-51
2023/02/14 11:51:29;;;;;;;26.33;14.68;;;;;;;10.83;83.20;98033.38;5112520;27;20091;-48